Time;durP1;ratioP1;P1;durP2;ratioP2;P2;SDS_P1;SDS_P2;PMS_P1;PMS_P2;Temp;Humidity;BMP_temperature;BMP_pressure;BME280_temperature;BME280_humidity;BME280_pressure;Samples;Min_cycle;Max_cycle;Signal;HPM_P1;HPM_P2
2022/08/16 05:03:26;;;;;;;6.53;3.70;;;18.80;99.90;;;;;;5016161;23;20060;-73
2022/08/16 05:05:52;;;;;;;6.70;3.80;;;18.90;99.90;;;;;;4928318;29;20039;-75
2022/08/16 05:08:21;;;;;;;5.32;3.50;;;18.90;99.90;;;;;;4927254;29;20027;-73
2022/08/16 05:11:05;;;;;;;6.60;3.58;;;19.00;99.90;;;;;;4926734;29;20214;-74
2022/08/16 05:13:33;;;;;;;6.97;3.70;;;19.00;99.90;;;;;;4927237;29;20225;-74
2022/08/16 05:15:59;;;;;;;5.20;3.40;;;19.10;99.90;;;;;;4926258;29;20206;-74
2022/08/16 05:18:26;;;;;;;4.82;3.25;;;19.10;99.90;;;;;;4926984;29;20040;-72
2022/08/16 05:20:54;;;;;;;5.80;3.67;;;19.10;99.90;;;;;;4927081;29;20163;-75
2022/08/16 05:23:21;;;;;;;7.07;3.50;;;19.20;99.90;;;;;;4928468;29;20032;-74
2022/08/16 05:25:47;;;;;;;6.75;3.40;;;19.20;99.90;;;;;;4927026;29;20313;-73
2022/08/16 05:28:13;;;;;;;6.07;3.78;;;19.30;99.80;;;;;;4926372;29;20344;-73
2022/08/16 05:30:45;;;;;;;6.82;3.28;;;19.40;99.70;;;;;;4927138;29;20024;-74
2022/08/16 05:33:15;;;;;;;5.72;3.40;;;19.40;99.30;;;;;;4926647;29;20036;-73
2022/08/16 05:35:43;;;;;;;5.32;3.47;;;19.50;99.00;;;;;;4926928;29;20016;-74
2022/08/16 05:38:17;;;;;;;5.95;3.80;;;19.60;98.60;;;;;;4926497;29;20382;-74
2022/08/16 05:40:43;;;;;;;5.25;3.70;;;19.70;98.00;;;;;;4926686;29;20035;-74
2022/08/16 05:43:09;;;;;;;7.15;3.42;;;19.80;97.50;;;;;;4926148;29;20032;-74
2022/08/16 05:45:36;;;;;;;6.53;4.22;;;20.00;96.50;;;;;;4926661;29;20036;-74
2022/08/16 05:48:03;;;;;;;7.03;4.18;;;20.00;96.90;;;;;;4925975;29;20028;-73
2022/08/16 05:50:42;;;;;;;6.80;4.22;;;20.00;96.70;;;;;;4912633;29;20034;-73
2022/08/16 05:53:08;;;;;;;6.85;4.28;;;20.10;96.50;;;;;;4925976;29;20039;-73
2022/08/16 05:55:39;;;;;;;9.13;4.22;;;20.10;96.50;;;;;;4926745;29;20027;-74
2022/08/16 05:58:05;;;;;;;7.72;4.40;;;20.00;96.90;;;;;;4927074;29;20070;-74
2022/08/16 06:00:31;;;;;;;7.75;4.78;;;20.10;96.90;;;;;;4926697;29;20067;-74
2022/08/16 06:02:57;;;;;;;9.38;5.03;;;20.10;96.70;;;;;;4927064;29;20329;-75
2022/08/16 06:05:45;;;;;;;8.40;4.72;;;20.00;96.90;;;;;;4927532;29;20067;-75
2022/08/16 06:08:11;;;;;;;8.23;5.32;;;20.10;96.70;;;;;;4925228;29;20091;-74
2022/08/16 06:10:44;;;;;;;7.20;5.18;;;20.10;96.70;;;;;;4926291;29;20220;-75
2022/08/16 06:13:09;;;;;;;13.02;5.13;;;20.20;96.50;;;;;;4925830;29;20024;-75
2022/08/16 06:15:37;;;;;;;10.13;5.10;;;20.10;96.60;;;;;;4926035;29;20032;-75
2022/08/16 06:18:03;;;;;;;9.52;5.03;;;20.10;96.50;;;;;;4925170;29;20170;-75
2022/08/16 06:20:29;;;;;;;8.63;5.05;;;20.20;96.60;;;;;;4925839;29;20210;-74
2022/08/16 06:22:57;;;;;;;7.60;5.03;;;20.00;96.80;;;;;;4925881;29;20032;-75
2022/08/16 06:25:26;;;;;;;8.20;4.67;;;19.90;97.00;;;;;;4925114;29;20292;-77
2022/08/16 06:27:53;;;;;;;7.72;4.43;;;19.90;97.20;;;;;;4925266;29;20115;-76
2022/08/16 06:30:20;;;;;;;7.57;4.60;;;19.90;97.20;;;;;;4924659;29;20032;-76
2022/08/16 06:32:47;;;;;;;6.57;4.95;;;19.90;97.30;;;;;;4925532;29;20106;-76
2022/08/16 06:35:14;;;;;;;7.90;5.10;;;19.90;97.40;;;;;;4924775;29;20060;-76
2022/08/16 06:37:41;;;;;;;6.63;4.70;;;19.90;97.30;;;;;;4924862;29;20042;-76
2022/08/16 06:40:10;;;;;;;8.30;4.90;;;19.90;97.20;;;;;;4924795;29;20103;-74
2022/08/16 06:42:40;;;;;;;6.35;4.35;;;19.90;97.10;;;;;;4925025;29;20032;-76
2022/08/16 06:45:26;;;;;;;6.60;4.03;;;19.90;97.00;;;;;;4922443;29;20091;-75
2022/08/16 06:48:01;;;;;;;7.97;4.53;;;20.00;97.20;;;;;;4924874;29;20066;-75
2022/08/16 06:50:27;;;;;;;7.55;4.43;;;20.10;97.00;;;;;;4924921;29;20023;-76
2022/08/16 06:52:53;;;;;;;6.82;4.55;;;20.30;96.40;;;;;;4924890;29;20031;-77
2022/08/16 06:55:18;;;;;;;7.60;4.13;;;20.50;95.70;;;;;;4924793;29;20047;-76
2022/08/16 06:57:53;;;;;;;6.35;4.13;;;20.70;95.10;;;;;;4925303;29;20032;-76
2022/08/16 07:00:19;;;;;;;9.68;4.07;;;20.90;94.70;;;;;;4924608;29;20064;-77
2022/08/16 07:03:07;;;;;;;6.15;4.40;;;21.10;94.20;;;;;;4915122;29;20096;-78
2022/08/16 07:05:33;;;;;;;7.93;4.20;;;21.30;93.40;;;;;;4895128;29;20023;-75
2022/08/16 07:08:16;;;;;;;8.95;4.50;;;21.50;93.00;;;;;;4923253;29;20024;-77
2022/08/16 07:10:41;;;;;;;9.27;4.90;;;21.60;92.20;;;;;;4911979;29;20039;-76
2022/08/16 07:13:08;;;;;;;6.68;4.00;;;21.90;92.00;;;;;;4888547;29;20064;-75
2022/08/16 07:15:35;;;;;;;7.03;3.97;;;22.10;91.10;;;;;;4904677;29;20122;-75
2022/08/16 07:18:04;;;;;;;6.10;4.13;;;22.20;91.20;;;;;;4907675;29;20091;-75
2022/08/16 07:20:31;;;;;;;;;;;22.40;90.40;;;;;;4923212;29;20024;-74
2022/08/16 07:22:56;;;;;;;7.78;4.43;;;22.60;89.90;;;;;;4924356;29;20088;-74
2022/08/16 07:25:27;;;;;;;6.90;3.80;;;22.70;89.00;;;;;;4922928;29;20071;-74
2022/08/16 07:27:53;;;;;;;9.75;4.50;;;22.90;88.50;;;;;;4923324;29;20091;-75
2022/08/16 07:30:21;;;;;;;;;;;23.00;88.00;;;;;;4923629;29;20032;-75
2022/08/16 07:32:49;;;;;;;9.52;4.72;;;23.00;87.00;;;;;;4924967;29;19961;-75
2022/08/16 07:35:16;;;;;;;8.23;4.20;;;23.20;86.40;;;;;;4902725;29;20032;-75
2022/08/16 07:37:43;;;;;;;7.25;3.78;;;23.30;86.00;;;;;;4922397;29;20028;-76
2022/08/16 07:40:17;;;;;;;8.27;3.83;;;23.50;85.60;;;;;;4922608;29;20028;-75
2022/08/16 07:42:44;;;;;;;8.52;3.70;;;23.50;84.90;;;;;;4923090;29;20339;-75
2022/08/16 07:45:10;;;;;;;5.88;4.20;;;23.60;84.30;;;;;;4922763;29;20028;-75
2022/08/16 07:47:44;;;;;;;7.40;3.75;;;23.70;84.40;;;;;;4923334;29;20055;-73
2022/08/16 07:50:13;;;;;;;9.27;3.80;;;23.90;83.60;;;;;;4906979;29;20036;-76
2022/08/16 07:52:40;;;;;;;8.53;4.10;;;24.00;83.00;;;;;;4907604;29;20035;-73
2022/08/16 07:55:09;;;;;;;8.02;3.80;;;24.20;82.50;;;;;;4922507;29;20076;-73
2022/08/16 07:57:35;;;;;;;7.72;3.88;;;24.30;81.50;;;;;;4923509;29;20056;-75
2022/08/16 08:00:03;;;;;;;8.07;3.75;;;24.40;81.30;;;;;;4923253;29;20059;-76
2022/08/16 08:02:40;;;;;;;4.35;3.47;;;24.50;80.70;;;;;;4922286;29;20044;-75
2022/08/16 08:05:07;;;;;;;8.27;3.78;;;24.70;80.00;;;;;;4922098;29;20035;-75
2022/08/16 08:07:35;;;;;;;7.90;3.28;;;25.00;79.20;;;;;;4907307;29;20039;-75
2022/08/16 08:10:02;;;;;;;7.43;3.75;;;25.30;78.20;;;;;;4923055;29;20075;-74
2022/08/16 08:12:29;;;;;;;5.95;3.30;;;25.50;77.70;;;;;;4922744;29;20413;-76
2022/08/16 08:14:55;;;;;;;7.00;3.95;;;25.80;76.20;;;;;;4921860;29;20103;-75
2022/08/16 08:17:21;;;;;;;5.38;3.80;;;26.20;75.50;;;;;;4921681;29;20341;-74
2022/08/16 08:19:49;;;;;;;7.53;4.23;;;26.30;75.00;;;;;;4922264;29;20028;-76
2022/08/16 08:22:15;;;;;;;7.05;3.30;;;26.60;74.00;;;;;;4922954;29;20039;-76
2022/08/16 08:24:50;;;;;;;4.35;3.00;;;26.80;73.30;;;;;;4922220;29;20123;-75
2022/08/16 08:27:16;;;;;;;7.97;3.50;;;26.90;72.30;;;;;;4921490;29;20031;-75
2022/08/16 08:29:42;;;;;;;7.32;3.05;;;26.90;72.40;;;;;;4924154;29;20036;-76
2022/08/16 08:32:10;;;;;;;5.72;3.47;;;26.90;72.70;;;;;;4925055;29;20028;-74
2022/08/16 08:34:36;;;;;;;5.95;2.88;;;26.90;71.70;;;;;;4927620;29;20071;-74
2022/08/16 08:37:01;;;;;;;5.57;3.58;;;26.70;71.80;;;;;;4926204;29;20126;-75
2022/08/16 08:39:37;;;;;;;5.53;3.22;;;26.50;72.30;;;;;;4926001;29;20305;-75
2022/08/16 08:42:04;;;;;;;6.63;3.60;;;26.40;72.80;;;;;;4926146;29;20047;-73
2022/08/16 08:44:31;;;;;;;4.87;3.70;;;26.40;72.70;;;;;;4925750;29;20043;-74
2022/08/16 08:47:05;;;;;;;7.28;3.97;;;26.50;72.40;;;;;;4910791;29;20444;-75
2022/08/16 08:49:34;;;;;;;5.93;3.45;;;26.30;72.70;;;;;;4925594;29;20076;-74
2022/08/16 08:52:00;;;;;;;;;;;26.20;73.30;;;;;;4926167;29;20032;-74
2022/08/16 08:54:27;;;;;;;6.35;3.30;;;26.30;73.10;;;;;;4925610;29;20216;-73
2022/08/16 08:56:54;;;;;;;7.05;3.70;;;26.30;73.20;;;;;;4925799;29;20024;-73
2022/08/16 08:59:29;;;;;;;4.55;3.47;;;26.30;72.50;;;;;;4925474;29;20068;-76
2022/08/16 09:01:56;;;;;;;8.23;3.50;;;26.40;72.60;;;;;;4925072;29;20082;-76
2022/08/16 09:04:22;;;;;;;4.70;3.38;;;26.40;72.50;;;;;;4926219;29;20040;-75
2022/08/16 09:06:49;;;;;;;7.30;3.75;;;26.30;72.20;;;;;;4925573;29;20035;-76
2022/08/16 09:09:16;;;;;;;6.00;3.75;;;26.20;72.20;;;;;;4925242;29;20075;-75
2022/08/16 09:11:43;;;;;;;5.65;3.53;;;26.30;72.20;;;;;;4925888;29;20044;-75
2022/08/16 09:14:10;;;;;;;10.75;3.75;;;26.30;72.30;;;;;;4925069;29;20039;-75
2022/08/16 09:16:37;;;;;;;6.75;3.47;;;26.40;72.50;;;;;;4925475;29;20198;-75
2022/08/16 09:19:03;;;;;;;5.70;3.40;;;26.40;72.20;;;;;;4921254;29;20320;-74
2022/08/16 09:21:29;;;;;;;7.30;5.50;;;26.60;71.70;;;;;;4924741;29;20028;-74
2022/08/16 09:23:55;;;;;;;10.48;5.90;;;26.90;71.20;;;;;;4919582;29;20038;-75
2022/08/16 09:26:21;;;;;;;6.38;4.05;;;27.10;70.50;;;;;;4925561;29;20075;-75
2022/08/16 09:28:47;;;;;;;5.97;3.78;;;27.00;70.10;;;;;;4925197;29;20074;-74
2022/08/16 09:31:23;;;;;;;8.80;3.55;;;27.10;70.30;;;;;;4913536;29;20020;-76
2022/08/16 09:33:51;;;;;;;4.72;3.38;;;27.20;69.80;;;;;;4906482;29;20183;-75
2022/08/16 09:36:18;;;;;;;7.05;4.00;;;27.30;69.70;;;;;;4914766;29;20062;-76
2022/08/16 09:38:44;;;;;;;7.57;3.35;;;27.50;69.20;;;;;;4917790;29;20024;-75
2022/08/16 09:41:10;;;;;;;5.05;3.33;;;27.70;68.70;;;;;;4920992;29;20039;-74
2022/08/16 09:43:38;;;;;;;5.95;3.40;;;27.70;68.30;;;;;;4925398;29;20040;-73
2022/08/16 09:46:06;;;;;;;8.32;3.70;;;27.70;68.40;;;;;;4921282;29;20079;-73
2022/08/16 09:48:32;;;;;;;;;;;27.70;68.00;;;;;;4931173;29;20047;-73
2022/08/16 09:50:58;;;;;;;5.55;3.08;;;28.00;68.30;;;;;;4928324;29;20195;-76
2022/08/16 09:53:25;;;;;;;4.78;3.30;;;28.40;67.10;;;;;;4925920;29;20040;-76
2022/08/16 09:55:53;;;;;;;5.80;3.10;;;28.60;66.20;;;;;;4926162;29;20329;-75
2022/08/16 09:58:22;;;;;;;6.80;3.50;;;28.50;66.30;;;;;;4924705;29;20290;-74
2022/08/16 10:00:52;;;;;;;5.88;3.53;;;28.70;66.00;;;;;;4925777;29;20036;-74
2022/08/16 10:03:18;;;;;;;9.95;3.83;;;28.50;66.10;;;;;;4921393;29;20052;-74
2022/08/16 10:05:45;;;;;;;5.60;3.55;;;28.30;66.60;;;;;;4907062;29;20040;-75
2022/08/16 10:08:11;;;;;;;5.00;3.65;;;28.00;66.50;;;;;;4920892;29;20047;-75
2022/08/16 10:13:10;;;;;;;5.50;3.30;;;28.00;67.00;;;;;;4921668;29;20039;-76
2022/08/16 10:13:27;;;;;;;5.63;3.15;;;27.80;67.70;;;;;;4911695;29;20337;-76
2022/08/16 10:15:58;;;;;;;5.32;3.25;;;27.80;67.80;;;;;;4920244;29;20047;-74
2022/08/16 10:18:26;;;;;;;5.10;3.60;;;27.80;66.90;;;;;;4925086;29;20348;-74
2022/08/16 10:20:54;;;;;;;6.13;3.30;;;27.50;67.30;;;;;;4925488;29;20195;-75
2022/08/16 10:23:20;;;;;;;3.97;3.35;;;27.30;67.40;;;;;;4925184;29;20091;-76
2022/08/16 10:25:47;;;;;;;5.78;3.45;;;27.20;67.30;;;;;;4924426;29;20059;-76
2022/08/16 10:28:15;;;;;;;5.57;3.28;;;27.30;67.60;;;;;;4924266;29;20024;-75
2022/08/16 10:30:42;;;;;;;6.38;3.22;;;27.50;67.40;;;;;;4925133;29;20035;-76
2022/08/16 10:33:09;;;;;;;6.38;3.63;;;27.60;66.40;;;;;;4925382;29;20032;-76
2022/08/16 10:35:35;;;;;;;7.10;3.50;;;27.70;65.80;;;;;;4925536;29;20043;-77
2022/08/16 10:38:01;;;;;;;9.15;3.60;;;27.80;66.50;;;;;;4925571;29;20340;-76
2022/08/16 10:40:26;;;;;;;5.70;3.00;;;28.20;65.50;;;;;;4924718;29;20140;-76
2022/08/16 10:42:53;;;;;;;6.18;3.33;;;28.70;64.90;;;;;;4925222;29;20468;-73
2022/08/16 10:45:19;;;;;;;5.43;3.40;;;29.40;63.80;;;;;;4924602;29;20032;-75
2022/08/16 10:47:45;;;;;;;7.63;4.00;;;29.90;62.90;;;;;;4923862;29;20063;-73
2022/08/16 10:50:11;;;;;;;4.97;2.85;;;30.30;62.10;;;;;;4907667;29;20042;-75
2022/08/16 10:52:38;;;;;;;10.05;4.30;;;30.70;60.60;;;;;;4924976;29;20095;-76
2022/08/16 10:55:09;;;;;;;8.07;3.40;;;30.90;59.80;;;;;;4924680;29;20020;-74
2022/08/16 10:57:35;;;;;;;5.45;3.10;;;31.20;59.60;;;;;;4924569;29;20055;-74
2022/08/16 11:00:05;;;;;;;4.03;2.70;;;31.30;58.90;;;;;;4924756;29;20110;-76
2022/08/16 11:02:31;;;;;;;6.07;3.28;;;31.30;59.00;;;;;;4923966;29;20458;-75
2022/08/16 11:04:58;;;;;;;9.23;3.20;;;31.40;58.90;;;;;;4924576;29;20305;-74
2022/08/16 11:07:24;;;;;;;5.22;3.40;;;31.30;58.70;;;;;;4924300;29;20099;-74
2022/08/16 11:09:50;;;;;;;4.47;3.00;;;31.40;58.40;;;;;;4924506;29;20079;-75
2022/08/16 11:12:16;;;;;;;4.10;2.90;;;31.20;58.10;;;;;;4923892;29;20036;-74
2022/08/16 11:14:41;;;;;;;5.55;2.50;;;31.40;58.40;;;;;;4923515;29;20024;-74
2022/08/16 11:17:09;;;;;;;6.22;2.85;;;32.00;58.10;;;;;;4924595;29;20028;-75
2022/08/16 11:19:35;;;;;;;4.38;2.53;;;32.20;57.20;;;;;;4923758;29;20040;-73
2022/08/16 11:22:01;;;;;;;6.50;3.10;;;32.40;56.70;;;;;;4924271;29;20032;-75
2022/08/16 11:24:27;;;;;;;5.00;3.03;;;32.30;56.60;;;;;;4922475;29;20259;-74
2022/08/16 11:26:54;;;;;;;5.30;2.90;;;32.20;56.70;;;;;;4924413;29;20055;-74
2022/08/16 11:29:20;;;;;;;4.88;2.92;;;32.20;56.60;;;;;;4923916;29;20028;-74
2022/08/16 11:31:48;;;;;;;5.47;3.05;;;32.10;56.50;;;;;;4924323;29;20040;-74
2022/08/16 11:34:15;;;;;;;6.57;3.10;;;32.60;55.90;;;;;;4922698;29;20040;-76
2022/08/16 11:36:41;;;;;;;5.03;3.10;;;32.80;55.90;;;;;;4924424;29;20036;-74
2022/08/16 11:39:06;;;;;;;6.70;3.03;;;32.80;56.10;;;;;;4924655;29;20043;-74
2022/08/16 11:41:34;;;;;;;5.15;2.53;;;33.40;55.30;;;;;;4924622;29;20318;-76
2022/08/16 11:44:00;;;;;;;4.07;2.65;;;34.20;54.80;;;;;;4924007;29;20024;-75
2022/08/16 11:46:27;;;;;;;8.40;2.60;;;34.80;53.60;;;;;;4924224;29;20055;-75
2022/08/16 11:48:53;;;;;;;6.60;2.70;;;35.00;52.80;;;;;;4924688;29;20530;-75
2022/08/16 11:51:19;;;;;;;6.80;2.60;;;34.20;53.50;;;;;;4923516;29;20192;-74
2022/08/16 11:53:45;;;;;;;4.68;2.70;;;33.90;54.30;;;;;;4923920;29;20032;-76
2022/08/16 11:56:11;;;;;;;4.95;2.40;;;34.50;53.40;;;;;;4923631;29;20035;-74
2022/08/16 11:58:40;;;;;;;8.18;3.00;;;34.00;53.40;;;;;;4923415;29;20031;-74
2022/08/16 12:01:06;;;;;;;7.97;2.95;;;33.30;54.20;;;;;;4923683;29;20024;-75
2022/08/16 12:03:32;;;;;;;5.32;2.60;;;33.60;54.00;;;;;;4921859;29;20044;-74
2022/08/16 12:06:02;;;;;;;4.85;2.53;;;33.70;53.90;;;;;;4924869;29;20052;-77
2022/08/16 12:08:30;;;;;;;3.75;2.28;;;34.60;52.70;;;;;;4927224;29;20088;-74
2022/08/16 12:10:58;;;;;;;4.35;2.47;;;35.80;51.60;;;;;;4927551;29;20059;-77
2022/08/16 12:13:24;;;;;;;6.10;2.40;;;35.40;51.30;;;;;;4927473;29;20032;-76
2022/08/16 12:15:50;;;;;;;6.07;2.80;;;34.80;52.00;;;;;;4927963;29;20103;-76
2022/08/16 12:18:16;;;;;;;4.85;2.88;;;35.20;51.70;;;;;;4926415;29;20044;-78
2022/08/16 12:20:43;;;;;;;4.60;2.40;;;36.60;50.10;;;;;;4928084;29;20192;-74
2022/08/16 12:23:10;;;;;;;5.25;2.40;;;38.20;49.40;;;;;;4926540;29;20338;-75
2022/08/16 12:25:37;;;;;;;3.38;2.22;;;38.90;47.80;;;;;;4926000;29;20040;-74
2022/08/16 12:28:04;;;;;;;3.92;2.25;;;39.10;47.10;;;;;;4927416;29;20091;-75
2022/08/16 12:30:35;;;;;;;7.22;2.10;;;39.90;47.00;;;;;;4926737;29;20028;-75
2022/08/16 12:33:02;;;;;;;5.63;2.00;;;40.70;46.30;;;;;;4927289;29;20238;-75
2022/08/16 12:35:30;;;;;;;4.95;2.10;;;41.10;45.60;;;;;;4926746;29;20085;-76
2022/08/16 12:37:57;;;;;;;3.88;2.00;;;40.00;45.70;;;;;;4926488;29;20060;-75
2022/08/16 12:40:26;;;;;;;4.45;2.17;;;39.20;46.50;;;;;;4927119;29;20020;-75
2022/08/16 12:42:55;;;;;;;3.30;2.03;;;39.40;46.00;;;;;;4926216;29;20087;-76
2022/08/16 12:45:22;;;;;;;5.20;2.13;;;40.60;45.50;;;;;;4926532;29;20318;-76
2022/08/16 12:50:34;;;;;;;4.75;2.22;;;40.90;45.10;;;;;;4927363;29;20059;-76
2022/08/16 12:53:00;;;;;;;4.38;2.10;;;41.80;44.50;;;;;;4927747;29;20334;-76
2022/08/16 12:55:27;;;;;;;3.05;1.80;;;42.60;43.80;;;;;;4925878;29;20039;-76
2022/08/16 12:57:53;;;;;;;4.53;2.13;;;43.60;43.30;;;;;;4927938;29;20319;-76
2022/08/16 13:00:21;;;;;;;3.45;1.90;;;43.90;42.80;;;;;;4925842;29;20277;-76
2022/08/16 13:02:47;;;;;;;4.93;2.08;;;43.70;42.50;;;;;;4922945;29;20052;-76
2022/08/16 13:05:14;;;;;;;6.10;2.13;;;43.50;42.70;;;;;;4908886;29;20040;-75
2022/08/16 13:07:41;;;;;;;4.07;2.10;;;41.40;43.50;;;;;;4908171;29;20040;-76
2022/08/16 13:10:12;;;;;;;8.70;2.00;;;40.60;44.80;;;;;;4908638;29;20035;-76
2022/08/16 13:12:41;;;;;;;3.60;1.80;;;42.00;44.00;;;;;;4922921;29;20103;-76
2022/08/16 13:15:09;;;;;;;3.22;1.95;;;42.60;43.30;;;;;;4922934;29;20044;-77
2022/08/16 13:17:37;;;;;;;3.95;1.92;;;43.30;42.70;;;;;;4905914;29;20041;-76
2022/08/16 13:20:08;;;;;;;3.25;1.77;;;43.50;42.40;;;;;;4908440;29;20088;-76
2022/08/16 13:22:36;;;;;;;3.78;1.85;;;43.70;42.30;;;;;;4907575;29;20047;-76
2022/08/16 13:25:04;;;;;;;3.40;1.70;;;43.90;42.00;;;;;;4908115;29;20053;-77
2022/08/16 13:27:36;;;;;;;3.00;2.17;;;44.70;42.20;;;;;;4907671;29;20080;-74
2022/08/16 13:30:03;;;;;;;2.78;1.85;;;45.40;41.00;;;;;;4908058;29;20047;-75
2022/08/16 13:32:28;;;;;;;4.28;1.42;;;46.10;40.90;;;;;;4907558;29;20335;-76
2022/08/16 13:34:54;;;;;;;3.75;1.73;;;46.50;40.70;;;;;;4908069;29;20289;-75
2022/08/16 13:37:20;;;;;;;4.50;1.80;;;47.00;40.30;;;;;;4922865;29;20050;-75
2022/08/16 13:39:45;;;;;;;4.23;1.90;;;47.60;39.60;;;;;;4926733;29;20080;-76
2022/08/16 13:42:11;;;;;;;4.07;1.57;;;48.50;39.30;;;;;;4926468;29;20036;-75
2022/08/16 13:44:38;;;;;;;3.27;1.60;;;49.00;39.10;;;;;;4926215;29;20032;-75
2022/08/16 13:47:06;;;;;;;3.42;1.73;;;49.00;38.40;;;;;;4926660;29;20367;-76
2022/08/16 13:49:33;;;;;;;3.20;1.60;;;49.50;38.30;;;;;;4926328;29;20067;-75
2022/08/16 13:51:59;;;;;;;2.85;1.50;;;50.70;38.10;;;;;;4925414;29;20269;-75
2022/08/16 13:54:25;;;;;;;2.50;1.50;;;49.50;38.00;;;;;;4926219;29;20036;-76
2022/08/16 13:56:51;;;;;;;8.38;3.03;;;48.90;38.30;;;;;;4926466;29;20349;-76
2022/08/16 13:59:18;;;;;;;5.00;2.00;;;48.80;38.30;;;;;;4925431;29;20032;-74
2022/08/16 14:01:45;;;;;;;5.18;2.70;;;48.50;38.60;;;;;;4925178;29;20067;-76
2022/08/16 14:04:13;;;;;;;6.95;2.15;;;48.80;38.40;;;;;;4910889;29;20051;-76
2022/08/16 14:06:38;;;;;;;2.58;1.75;;;49.00;38.20;;;;;;4905835;29;20033;-74
2022/08/16 14:09:04;;;;;;;1.92;1.50;;;49.70;37.80;;;;;;4907298;29;20033;-76
2022/08/16 14:11:30;;;;;;;3.45;1.58;;;50.50;37.50;;;;;;4906580;29;20044;-75
2022/08/16 14:13:57;;;;;;;3.75;1.50;;;50.20;37.50;;;;;;4906865;29;20064;-74
2022/08/16 14:16:23;;;;;;;2.95;1.73;;;50.10;37.30;;;;;;4906555;29;20040;-74
2022/08/16 14:18:50;;;;;;;2.83;1.40;;;50.30;37.00;;;;;;4905876;29;20148;-75
2022/08/16 14:21:15;;;;;;;4.63;2.17;;;50.70;36.90;;;;;;4906623;29;20032;-76
2022/08/16 14:23:41;;;;;;;4.55;1.50;;;50.80;37.10;;;;;;4905220;29;20045;-75
2022/08/16 14:26:07;;;;;;;3.05;1.75;;;50.50;37.10;;;;;;4906586;29;20066;-75
2022/08/16 14:28:33;;;;;;;3.03;1.90;;;50.70;37.20;;;;;;4904832;29;20040;-75
2022/08/16 14:30:59;;;;;;;2.90;1.57;;;50.00;37.50;;;;;;4906862;29;20184;-76
2022/08/16 14:33:24;;;;;;;6.22;2.00;;;50.10;37.20;;;;;;4904907;29;20037;-75
2022/08/16 14:35:50;;;;;;;2.75;1.52;;;50.80;37.50;;;;;;4909359;29;20099;-74
2022/08/16 14:38:18;;;;;;;3.67;1.80;;;50.70;37.30;;;;;;4925506;29;20032;-76
2022/08/16 14:40:47;;;;;;;3.55;2.00;;;50.90;37.00;;;;;;4924672;29;20043;-75
2022/08/16 14:43:13;;;;;;;4.90;1.70;;;50.50;37.10;;;;;;4923919;29;20040;-77
2022/08/16 14:45:39;;;;;;;2.30;1.50;;;50.50;37.10;;;;;;4924747;29;20209;-77
2022/08/16 14:48:05;;;;;;;5.17;2.10;;;50.30;37.10;;;;;;4924813;29;20306;-75
2022/08/16 14:50:30;;;;;;;2.83;1.50;;;50.10;36.80;;;;;;4924702;29;20602;-75
2022/08/16 14:53:00;;;;;;;3.60;1.90;;;49.80;36.70;;;;;;4925173;29;20309;-75
2022/08/16 14:55:28;;;;;;;3.58;1.55;;;50.10;36.90;;;;;;4924034;29;20067;-77
2022/08/16 14:57:55;;;;;;;3.03;1.48;;;50.40;36.70;;;;;;4928448;29;20036;-74
2022/08/16 15:00:22;;;;;;;2.28;1.58;;;50.40;36.80;;;;;;4932776;29;20024;-74
2022/08/16 15:02:51;;;;;;;4.03;1.83;;;50.80;36.90;;;;;;4932138;29;20059;-74
2022/08/16 15:05:18;;;;;;;4.97;2.05;;;50.90;36.80;;;;;;4932457;29;20063;-73
2022/08/16 15:07:44;;;;;;;3.83;1.67;;;50.30;36.50;;;;;;4928041;29;20031;-76
2022/08/16 15:10:11;;;;;;;2.85;1.33;;;50.40;36.90;;;;;;4925137;29;20070;-73
2022/08/16 15:12:36;;;;;;;5.78;1.77;;;49.60;37.10;;;;;;4923330;29;20039;-75
2022/08/16 15:15:10;;;;;;;3.27;1.53;;;49.20;37.30;;;;;;4924787;29;20112;-75
2022/08/16 15:17:36;;;;;;;3.60;1.90;;;48.40;37.70;;;;;;4923150;29;20250;-77
2022/08/16 15:20:08;;;;;;;6.03;1.87;;;48.80;37.90;;;;;;4925124;29;20036;-76
2022/08/16 15:22:39;;;;;;;3.55;1.80;;;49.30;37.60;;;;;;4924561;29;20192;-75
2022/08/16 15:25:09;;;;;;;2.85;1.73;;;49.70;37.40;;;;;;4924423;29;20286;-75
2022/08/16 15:27:40;;;;;;;3.22;1.63;;;49.90;37.10;;;;;;4924400;29;20345;-76
2022/08/16 15:30:14;;;;;;;3.65;1.50;;;50.70;37.00;;;;;;4923487;29;20266;-77
2022/08/16 15:32:40;;;;;;;3.40;1.70;;;50.90;37.00;;;;;;4923944;29;20040;-77
2022/08/16 15:35:08;;;;;;;2.42;1.42;;;50.60;36.70;;;;;;4924511;29;20051;-76
2022/08/16 15:37:36;;;;;;;3.15;1.58;;;50.80;36.60;;;;;;4923804;29;20087;-76
2022/08/16 15:40:04;;;;;;;4.10;1.70;;;51.00;36.30;;;;;;4924170;29;20036;-75
2022/08/16 15:42:30;;;;;;;3.22;1.67;;;50.90;36.40;;;;;;4922157;29;20040;-76
2022/08/16 15:44:56;;;;;;;3.00;1.90;;;50.90;36.50;;;;;;4924542;29;20064;-77
2022/08/16 15:47:26;;;;;;;3.53;1.80;;;49.60;36.50;;;;;;4924582;29;20039;-75
2022/08/16 15:49:53;;;;;;;2.67;1.52;;;49.50;36.80;;;;;;4923313;29;20431;-76
2022/08/16 15:52:24;;;;;;;;;;;49.00;37.30;;;;;;4924917;29;20370;-77
2022/08/16 15:54:50;;;;;;;3.70;1.75;;;49.20;37.50;;;;;;4923215;29;19911;-76
2022/08/16 15:57:16;;;;;;;3.10;1.80;;;49.40;37.30;;;;;;4923188;29;20266;-75
2022/08/16 15:59:43;;;;;;;3.78;1.90;;;49.10;36.90;;;;;;4923769;29;20250;-76
2022/08/16 16:02:10;;;;;;;4.10;1.77;;;48.80;37.40;;;;;;4923856;29;20072;-76
2022/08/16 16:04:37;;;;;;;2.75;1.67;;;48.30;37.10;;;;;;4919061;29;20033;-76
2022/08/16 16:07:03;;;;;;;3.45;1.60;;;48.40;37.30;;;;;;4905086;29;20258;-75
2022/08/16 16:09:29;;;;;;;3.50;1.73;;;49.10;37.20;;;;;;4904656;29;20105;-76
2022/08/16 16:11:55;;;;;;;3.67;2.10;;;48.80;37.20;;;;;;4904381;29;20040;-76
2022/08/16 16:14:23;;;;;;;2.93;1.70;;;47.80;37.60;;;;;;4905617;29;20045;-75
2022/08/16 16:16:51;;;;;;;5.10;2.90;;;47.40;37.80;;;;;;4904703;29;20081;-74
2022/08/16 16:19:19;;;;;;;2.65;1.77;;;47.80;37.60;;;;;;4904937;29;20100;-76
2022/08/16 16:21:46;;;;;;;3.80;1.77;;;48.00;37.50;;;;;;4904888;29;20035;-75
2022/08/16 16:24:14;;;;;;;2.45;1.60;;;47.10;37.50;;;;;;4905081;29;20056;-75
2022/08/16 16:26:40;;;;;;;3.97;1.58;;;47.00;37.80;;;;;;4904625;29;20044;-76
2022/08/16 16:29:06;;;;;;;4.35;1.60;;;47.60;37.80;;;;;;4904997;29;20052;-76
2022/08/16 16:31:33;;;;;;;3.17;1.60;;;48.40;37.70;;;;;;4904583;29;20116;-74
2022/08/16 16:34:00;;;;;;;;;;;48.60;37.30;;;;;;4905447;29;20092;-75
2022/08/16 16:36:32;;;;;;;3.17;1.85;;;48.30;37.50;;;;;;4913870;29;19907;-75
2022/08/16 16:39:03;;;;;;;3.42;1.90;;;48.40;37.40;;;;;;4924506;29;20036;-76
2022/08/16 16:41:29;;;;;;;4.85;1.77;;;47.80;37.60;;;;;;4923245;29;20363;-74
2022/08/16 16:43:56;;;;;;;3.45;1.83;;;47.30;38.20;;;;;;4924143;29;20028;-74
2022/08/16 16:46:23;;;;;;;3.22;1.90;;;46.90;38.20;;;;;;4923992;29;20028;-76
2022/08/16 16:48:50;;;;;;;4.57;2.30;;;46.30;38.30;;;;;;4923289;29;20040;-75
2022/08/16 16:51:16;;;;;;;2.88;1.60;;;45.50;39.20;;;;;;4924154;29;20059;-75
2022/08/16 16:53:48;;;;;;;6.07;1.67;;;45.00;39.00;;;;;;4926558;29;20048;-75
2022/08/16 16:56:16;;;;;;;3.28;1.50;;;44.40;39.50;;;;;;4927448;29;20028;-74
2022/08/16 16:58:58;;;;;;;3.55;1.92;;;44.10;39.80;;;;;;4926491;29;20040;-74
2022/08/16 17:01:31;;;;;;;2.92;1.95;;;43.40;40.30;;;;;;4926790;29;20251;-76
2022/08/16 17:04:03;;;;;;;3.83;2.20;;;41.60;41.30;;;;;;4927168;29;20024;-75
2022/08/16 17:06:29;;;;;;;4.20;2.00;;;40.30;42.30;;;;;;4925348;29;20103;-74
2022/08/16 17:08:55;;;;;;;3.97;2.20;;;39.10;43.60;;;;;;4926817;29;20032;-76
2022/08/16 17:11:23;;;;;;;4.80;2.60;;;37.90;44.80;;;;;;4926918;29;20314;-75
2022/08/16 17:13:48;;;;;;;4.03;3.08;;;37.10;46.00;;;;;;4926491;29;20472;-76
2022/08/16 17:16:15;;;;;;;4.40;2.50;;;36.40;46.10;;;;;;4926930;29;20032;-74
2022/08/16 17:18:40;;;;;;;4.40;2.50;;;35.80;47.10;;;;;;4926257;29;20051;-75
2022/08/16 17:21:07;;;;;;;3.40;2.40;;;35.10;47.80;;;;;;4925902;29;20060;-77
2022/08/16 17:23:33;;;;;;;8.60;2.67;;;34.70;48.30;;;;;;4924914;29;20038;-74
2022/08/16 17:25:59;;;;;;;4.20;2.50;;;34.30;48.70;;;;;;4925635;29;20032;-74
2022/08/16 17:28:25;;;;;;;3.30;2.45;;;34.10;48.90;;;;;;4927182;29;20127;-75
2022/08/16 17:30:51;;;;;;;3.95;2.88;;;33.80;49.30;;;;;;4926497;29;20032;-73
2022/08/16 17:33:20;;;;;;;5.40;2.63;;;33.60;49.80;;;;;;4926806;29;20103;-75
2022/08/16 17:35:48;;;;;;;4.00;2.42;;;33.30;49.80;;;;;;4925623;29;20047;-75
2022/08/16 17:38:16;;;;;;;4.13;2.55;;;33.00;50.40;;;;;;4927150;29;20032;-73
2022/08/16 17:40:46;;;;;;;5.13;2.70;;;33.00;50.70;;;;;;4926650;29;20073;-74
2022/08/16 17:43:17;;;;;;;4.38;3.00;;;32.80;50.70;;;;;;4925621;29;20035;-76
2022/08/16 17:45:43;;;;;;;5.47;3.35;;;32.70;51.00;;;;;;4925337;29;20245;-75
2022/08/16 17:48:10;;;;;;;5.05;3.00;;;32.50;51.30;;;;;;4925841;29;20036;-75
2022/08/16 17:50:37;;;;;;;3.78;2.70;;;32.30;51.30;;;;;;4926186;29;20059;-72
2022/08/16 17:53:04;;;;;;;3.67;2.97;;;32.10;51.50;;;;;;4926785;29;20107;-75
2022/08/16 17:55:33;;;;;;;5.15;2.92;;;31.80;52.30;;;;;;4926746;29;20050;-76